sensor_id;sensor_type;location;lat;lon;timestamp;pressure;altitude;pressure_sealevel;temperature;humidity
35291;BME280;21411;50.024;19.220;2023-01-15T00:03:51;98455.79;;;3.34;100.00
35291;BME280;21411;50.024;19.220;2023-01-15T00:06:19;98450.84;;;3.42;100.00
35291;BME280;21411;50.024;19.220;2023-01-15T00:08:46;98444.70;;;3.46;100.00
35291;BME280;21411;50.024;19.220;2023-01-15T00:11:13;98436.73;;;3.47;100.00
35291;BME280;21411;50.024;19.220;2023-01-15T00:13:40;98426.79;;;3.49;100.00
35291;BME280;21411;50.024;19.220;2023-01-15T00:16:18;98420.23;;;3.50;100.00
35291;BME280;21411;50.024;19.220;2023-01-15T00:18:58;98421.51;;;3.53;100.00
35291;BME280;21411;50.024;19.220;2023-01-15T00:21:26;98419.01;;;3.58;100.00
35291;BME280;21411;50.024;19.220;2023-01-15T00:23:53;98417.11;;;3.64;100.00
35291;BME280;21411;50.024;19.220;2023-01-15T00:26:39;98411.64;;;3.72;100.00
35291;BME280;21411;50.024;19.220;2023-01-15T00:29:25;98409.99;;;3.81;100.00
35291;BME280;21411;50.024;19.220;2023-01-15T00:34:21;98399.69;;;3.87;100.00
35291;BME280;21411;50.024;19.220;2023-01-15T00:36:48;98388.21;;;3.91;100.00
35291;BME280;21411;50.024;19.220;2023-01-15T00:39:15;98376.67;;;4.00;100.00
35291;BME280;21411;50.024;19.220;2023-01-15T00:41:42;98370.73;;;4.13;100.00
35291;BME280;21411;50.024;19.220;2023-01-15T00:44:09;98367.00;;;4.25;100.00
35291;BME280;21411;50.024;19.220;2023-01-15T00:46:35;98359.34;;;4.33;100.00
35291;BME280;21411;50.024;19.220;2023-01-15T00:49:03;98359.96;;;4.38;100.00
35291;BME280;21411;50.024;19.220;2023-01-15T00:51:30;98361.73;;;4.41;100.00
35291;BME280;21411;50.024;19.220;2023-01-15T00:53:57;98357.98;;;4.50;100.00
35291;BME280;21411;50.024;19.220;2023-01-15T00:56:25;98357.73;;;4.58;100.00
35291;BME280;21411;50.024;19.220;2023-01-15T00:58:52;98355.98;;;4.64;100.00
35291;BME280;21411;50.024;19.220;2023-01-15T01:01:19;98357.52;;;4.71;100.00
35291;BME280;21411;50.024;19.220;2023-01-15T01:03:45;98355.98;;;4.80;100.00
35291;BME280;21411;50.024;19.220;2023-01-15T01:06:21;98347.14;;;4.88;100.00
35291;BME280;21411;50.024;19.220;2023-01-15T01:08:48;98347.55;;;5.00;100.00
35291;BME280;21411;50.024;19.220;2023-01-15T01:11:18;98343.56;;;5.09;100.00
35291;BME280;21411;50.024;19.220;2023-01-15T01:13:46;98338.09;;;5.18;100.00
35291;BME280;21411;50.024;19.220;2023-01-15T01:18:59;98329.48;;;5.33;100.00
35291;BME280;21411;50.024;19.220;2023-01-15T01:21:27;98326.50;;;5.36;100.00
35291;BME280;21411;50.024;19.220;2023-01-15T01:23:54;98321.81;;;5.38;100.00
35291;BME280;21411;50.024;19.220;2023-01-15T01:26:23;98314.86;;;5.40;100.00
35291;BME280;21411;50.024;19.220;2023-01-15T01:28:51;98314.01;;;5.45;100.00
35291;BME280;21411;50.024;19.220;2023-01-15T01:31:19;98312.44;;;5.60;100.00
35291;BME280;21411;50.024;19.220;2023-01-15T01:33:50;98312.03;;;5.71;100.00
35291;BME280;21411;50.024;19.220;2023-01-15T01:36:18;98312.02;;;5.80;100.00
35291;BME280;21411;50.024;19.220;2023-01-15T01:38:48;98312.04;;;5.86;100.00
35291;BME280;21411;50.024;19.220;2023-01-15T01:41:16;98312.77;;;5.91;100.00
35291;BME280;21411;50.024;19.220;2023-01-15T01:44:01;98306.98;;;5.97;100.00
35291;BME280;21411;50.024;19.220;2023-01-15T01:46:31;98302.58;;;6.00;100.00
35291;BME280;21411;50.024;19.220;2023-01-15T01:51:36;98291.73;;;6.02;100.00
35291;BME280;21411;50.024;19.220;2023-01-15T01:54:03;98284.67;;;5.99;100.00
35291;BME280;21411;50.024;19.220;2023-01-15T01:56:33;98282.54;;;5.96;100.00
35291;BME280;21411;50.024;19.220;2023-01-15T01:59:02;98280.88;;;5.94;100.00
35291;BME280;21411;50.024;19.220;2023-01-15T02:01:29;98273.59;;;5.92;100.00
35291;BME280;21411;50.024;19.220;2023-01-15T02:03:56;98276.06;;;5.92;100.00
35291;BME280;21411;50.024;19.220;2023-01-15T02:06:24;98273.46;;;5.95;100.00
35291;BME280;21411;50.024;19.220;2023-01-15T02:08:53;98270.75;;;5.92;100.00
35291;BME280;21411;50.024;19.220;2023-01-15T02:11:21;98270.50;;;5.90;100.00
35291;BME280;21411;50.024;19.220;2023-01-15T02:16:47;98277.16;;;6.01;100.00
35291;BME280;21411;50.024;19.220;2023-01-15T02:27:08;98266.48;;;5.97;100.00
35291;BME280;21411;50.024;19.220;2023-01-15T02:32:13;98259.33;;;5.98;100.00
35291;BME280;21411;50.024;19.220;2023-01-15T02:34:47;98253.64;;;5.96;100.00
35291;BME280;21411;50.024;19.220;2023-01-15T02:37:21;98242.95;;;5.95;100.00
35291;BME280;21411;50.024;19.220;2023-01-15T02:39:51;98237.84;;;5.95;100.00
35291;BME280;21411;50.024;19.220;2023-01-15T02:42:22;98244.56;;;5.97;100.00
35291;BME280;21411;50.024;19.220;2023-01-15T02:44:52;98240.58;;;5.99;100.00
35291;BME280;21411;50.024;19.220;2023-01-15T02:47:24;98236.86;;;6.00;100.00
35291;BME280;21411;50.024;19.220;2023-01-15T02:49:57;98236.22;;;6.01;100.00
35291;BME280;21411;50.024;19.220;2023-01-15T02:52:29;98226.36;;;6.04;100.00
35291;BME280;21411;50.024;19.220;2023-01-15T02:55:06;98218.71;;;6.11;100.00
35291;BME280;21411;50.024;19.220;2023-01-15T02:57:36;98222.88;;;6.18;100.00
35291;BME280;21411;50.024;19.220;2023-01-15T03:03:13;98228.28;;;6.27;100.00
35291;BME280;21411;50.024;19.220;2023-01-15T03:05:53;98224.01;;;6.31;100.00
35291;BME280;21411;50.024;19.220;2023-01-15T03:08:23;98210.79;;;6.36;100.00
35291;BME280;21411;50.024;19.220;2023-01-15T03:18:59;98206.11;;;6.54;100.00
35291;BME280;21411;50.024;19.220;2023-01-15T03:24:04;98203.98;;;6.60;100.00
35291;BME280;21411;50.024;19.220;2023-01-15T03:26:32;98202.92;;;6.63;100.00
35291;BME280;21411;50.024;19.220;2023-01-15T03:28:59;98203.34;;;6.68;100.00
35291;BME280;21411;50.024;19.220;2023-01-15T03:31:28;98202.58;;;6.71;100.00
35291;BME280;21411;50.024;19.220;2023-01-15T03:33:55;98193.41;;;6.74;100.00
35291;BME280;21411;50.024;19.220;2023-01-15T03:36:21;98190.27;;;6.76;100.00
35291;BME280;21411;50.024;19.220;2023-01-15T03:38:49;98184.55;;;6.80;100.00
35291;BME280;21411;50.024;19.220;2023-01-15T03:41:37;98183.33;;;6.82;100.00
35291;BME280;21411;50.024;19.220;2023-01-15T03:44:17;98181.50;;;6.83;100.00
35291;BME280;21411;50.024;19.220;2023-01-15T03:47:05;98178.07;;;6.85;100.00
35291;BME280;21411;50.024;19.220;2023-01-15T03:49:47;98175.98;;;6.87;100.00
35291;BME280;21411;50.024;19.220;2023-01-15T03:57:44;98159.77;;;6.94;100.00
35291;BME280;21411;50.024;19.220;2023-01-15T04:00:18;98161.61;;;6.96;100.00
35291;BME280;21411;50.024;19.220;2023-01-15T04:02:47;98161.79;;;6.96;100.00
35291;BME280;21411;50.024;19.220;2023-01-15T04:05:16;98159.36;;;6.95;100.00
35291;BME280;21411;50.024;19.220;2023-01-15T04:07:45;98157.25;;;6.95;100.00
35291;BME280;21411;50.024;19.220;2023-01-15T04:10:12;98156.13;;;6.96;100.00
35291;BME280;21411;50.024;19.220;2023-01-15T04:12:39;98154.77;;;6.98;100.00
35291;BME280;21411;50.024;19.220;2023-01-15T04:15:06;98152.23;;;6.99;100.00
35291;BME280;21411;50.024;19.220;2023-01-15T04:17:33;98147.59;;;7.00;100.00
35291;BME280;21411;50.024;19.220;2023-01-15T04:20:00;98144.07;;;7.02;100.00
35291;BME280;21411;50.024;19.220;2023-01-15T04:22:26;98142.42;;;7.03;100.00
35291;BME280;21411;50.024;19.220;2023-01-15T04:24:53;98133.73;;;7.03;100.00
35291;BME280;21411;50.024;19.220;2023-01-15T04:27:20;98129.34;;;7.06;100.00
35291;BME280;21411;50.024;19.220;2023-01-15T04:29:47;98127.13;;;7.10;100.00
35291;BME280;21411;50.024;19.220;2023-01-15T04:32:14;98125.42;;;7.12;100.00
35291;BME280;21411;50.024;19.220;2023-01-15T04:34:40;98118.21;;;7.11;100.00
35291;BME280;21411;50.024;19.220;2023-01-15T04:37:07;98113.55;;;7.12;100.00
35291;BME280;21411;50.024;19.220;2023-01-15T04:39:34;98113.31;;;7.13;100.00
35291;BME280;21411;50.024;19.220;2023-01-15T04:42:00;98105.69;;;7.14;100.00
35291;BME280;21411;50.024;19.220;2023-01-15T04:44:46;98102.20;;;7.15;100.00
35291;BME280;21411;50.024;19.220;2023-01-15T04:47:12;98101.56;;;7.17;100.00
35291;BME280;21411;50.024;19.220;2023-01-15T04:49:39;98093.52;;;7.19;100.00
35291;BME280;21411;50.024;19.220;2023-01-15T04:52:06;98093.58;;;7.20;100.00
35291;BME280;21411;50.024;19.220;2023-01-15T04:54:33;98090.71;;;7.21;100.00
35291;BME280;21411;50.024;19.220;2023-01-15T04:57:00;98081.74;;;7.20;100.00
35291;BME280;21411;50.024;19.220;2023-01-15T04:59:27;98079.27;;;7.23;100.00
35291;BME280;21411;50.024;19.220;2023-01-15T05:01:53;98083.41;;;7.24;100.00
35291;BME280;21411;50.024;19.220;2023-01-15T05:04:21;98083.88;;;7.23;100.00
35291;BME280;21411;50.024;19.220;2023-01-15T05:06:47;98079.94;;;7.21;100.00
35291;BME280;21411;50.024;19.220;2023-01-15T05:09:14;98079.71;;;7.19;100.00
35291;BME280;21411;50.024;19.220;2023-01-15T05:11:41;98074.79;;;7.16;100.00
35291;BME280;21411;50.024;19.220;2023-01-15T05:14:08;98075.83;;;7.14;100.00
35291;BME280;21411;50.024;19.220;2023-01-15T05:16:35;98071.58;;;7.11;100.00
35291;BME280;21411;50.024;19.220;2023-01-15T05:19:04;98066.04;;;7.07;100.00
35291;BME280;21411;50.024;19.220;2023-01-15T05:21:35;98070.52;;;7.03;100.00
35291;BME280;21411;50.024;19.220;2023-01-15T05:24:04;98068.70;;;7.01;100.00
35291;BME280;21411;50.024;19.220;2023-01-15T05:26:32;98068.88;;;6.99;100.00
35291;BME280;21411;50.024;19.220;2023-01-15T05:28:59;98065.13;;;6.97;100.00
35291;BME280;21411;50.024;19.220;2023-01-15T05:31:26;98065.76;;;6.98;100.00
35291;BME280;21411;50.024;19.220;2023-01-15T05:33:53;98060.02;;;6.99;100.00
35291;BME280;21411;50.024;19.220;2023-01-15T05:36:23;98056.38;;;6.98;100.00
35291;BME280;21411;50.024;19.220;2023-01-15T05:38:52;98057.94;;;6.96;100.00
35291;BME280;21411;50.024;19.220;2023-01-15T05:41:20;98055.04;;;6.95;100.00
35291;BME280;21411;50.024;19.220;2023-01-15T05:44:08;98051.61;;;6.93;100.00
35291;BME280;21411;50.024;19.220;2023-01-15T05:46:37;98047.07;;;6.92;100.00
35291;BME280;21411;50.024;19.220;2023-01-15T05:49:07;98045.23;;;6.91;100.00
35291;BME280;21411;50.024;19.220;2023-01-15T05:51:35;98039.92;;;6.91;100.00
35291;BME280;21411;50.024;19.220;2023-01-15T05:54:04;98038.98;;;6.92;100.00
35291;BME280;21411;50.024;19.220;2023-01-15T05:56:34;98036.97;;;6.93;100.00
35291;BME280;21411;50.024;19.220;2023-01-15T05:59:02;98032.86;;;6.94;100.00
35291;BME280;21411;50.024;19.220;2023-01-15T06:01:29;98032.33;;;6.94;100.00
35291;BME280;21411;50.024;19.220;2023-01-15T06:04:01;98035.92;;;6.95;100.00
35291;BME280;21411;50.024;19.220;2023-01-15T06:06:28;98035.73;;;6.96;100.00
35291;BME280;21411;50.024;19.220;2023-01-15T06:08:55;98028.69;;;6.95;100.00
35291;BME280;21411;50.024;19.220;2023-01-15T06:11:22;98032.80;;;6.97;100.00
35291;BME280;21411;50.024;19.220;2023-01-15T06:13:49;98034.69;;;7.00;100.00
35291;BME280;21411;50.024;19.220;2023-01-15T06:16:16;98026.42;;;7.02;100.00
35291;BME280;21411;50.024;19.220;2023-01-15T06:18:43;98023.73;;;7.03;100.00
35291;BME280;21411;50.024;19.220;2023-01-15T06:21:12;98030.30;;;7.02;100.00
35291;BME280;21411;50.024;19.220;2023-01-15T06:23:40;98028.25;;;7.04;100.00
35291;BME280;21411;50.024;19.220;2023-01-15T06:26:17;98023.55;;;7.06;100.00
35291;BME280;21411;50.024;19.220;2023-01-15T06:28:44;98024.14;;;7.08;100.00
35291;BME280;21411;50.024;19.220;2023-01-15T06:31:13;98023.81;;;7.10;100.00
35291;BME280;21411;50.024;19.220;2023-01-15T06:33:41;98024.83;;;7.13;100.00
35291;BME280;21411;50.024;19.220;2023-01-15T06:36:13;98027.23;;;7.16;100.00
35291;BME280;21411;50.024;19.220;2023-01-15T06:38:41;98025.15;;;7.19;100.00
35291;BME280;21411;50.024;19.220;2023-01-15T06:41:12;98027.45;;;7.19;100.00
35291;BME280;21411;50.024;19.220;2023-01-15T06:43:57;98022.12;;;7.16;100.00
35291;BME280;21411;50.024;19.220;2023-01-15T06:46:45;98024.70;;;7.15;100.00
35291;BME280;21411;50.024;19.220;2023-01-15T06:49:32;98024.46;;;7.13;100.00
35291;BME280;21411;50.024;19.220;2023-01-15T06:51:59;98027.88;;;7.13;100.00
35291;BME280;21411;50.024;19.220;2023-01-15T06:54:27;98021.50;;;7.10;100.00
35291;BME280;21411;50.024;19.220;2023-01-15T06:56:54;98018.57;;;7.07;100.00
35291;BME280;21411;50.024;19.220;2023-01-15T06:59:21;98014.79;;;7.02;100.00
35291;BME280;21411;50.024;19.220;2023-01-15T07:01:47;98013.90;;;6.97;100.00
35291;BME280;21411;50.024;19.220;2023-01-15T07:04:15;98022.34;;;6.92;100.00
35291;BME280;21411;50.024;19.220;2023-01-15T07:06:41;98025.59;;;6.86;100.00
35291;BME280;21411;50.024;19.220;2023-01-15T07:09:08;98024.97;;;6.80;100.00
35291;BME280;21411;50.024;19.220;2023-01-15T07:11:35;98024.36;;;6.73;100.00
35291;BME280;21411;50.024;19.220;2023-01-15T07:14:19;98021.31;;;6.68;100.00
35291;BME280;21411;50.024;19.220;2023-01-15T07:16:46;98021.84;;;6.66;100.00
35291;BME280;21411;50.024;19.220;2023-01-15T07:19:13;98026.09;;;6.66;100.00
35291;BME280;21411;50.024;19.220;2023-01-15T07:21:40;98031.55;;;6.68;100.00
35291;BME280;21411;50.024;19.220;2023-01-15T07:24:07;98032.73;;;6.72;100.00
35291;BME280;21411;50.024;19.220;2023-01-15T07:26:35;98035.60;;;6.76;100.00
35291;BME280;21411;50.024;19.220;2023-01-15T07:29:02;98038.61;;;6.81;100.00
35291;BME280;21411;50.024;19.220;2023-01-15T07:31:29;98036.33;;;6.89;100.00
35291;BME280;21411;50.024;19.220;2023-01-15T07:33:56;98034.77;;;6.99;100.00
35291;BME280;21411;50.024;19.220;2023-01-15T07:36:23;98037.05;;;7.12;100.00
35291;BME280;21411;50.024;19.220;2023-01-15T07:38:50;98037.85;;;7.26;100.00
35291;BME280;21411;50.024;19.220;2023-01-15T07:41:16;98041.56;;;7.42;100.00
35291;BME280;21411;50.024;19.220;2023-01-15T07:44:01;98043.66;;;7.57;100.00
35291;BME280;21411;50.024;19.220;2023-01-15T07:46:46;98043.39;;;7.69;100.00
35291;BME280;21411;50.024;19.220;2023-01-15T07:49:31;98043.34;;;7.77;100.00
35291;BME280;21411;50.024;19.220;2023-01-15T07:52:19;98048.27;;;7.82;100.00
35291;BME280;21411;50.024;19.220;2023-01-15T07:54:47;98050.69;;;7.83;100.00
35291;BME280;21411;50.024;19.220;2023-01-15T07:57:18;98042.42;;;7.82;100.00
35291;BME280;21411;50.024;19.220;2023-01-15T07:59:46;98036.64;;;7.82;100.00
35291;BME280;21411;50.024;19.220;2023-01-15T08:02:13;98036.02;;;7.80;100.00
35291;BME280;21411;50.024;19.220;2023-01-15T08:04:40;98029.80;;;7.78;100.00
35291;BME280;21411;50.024;19.220;2023-01-15T08:07:07;98030.36;;;7.76;100.00
35291;BME280;21411;50.024;19.220;2023-01-15T08:09:34;98023.27;;;7.74;100.00
35291;BME280;21411;50.024;19.220;2023-01-15T08:12:02;98023.81;;;7.70;100.00
35291;BME280;21411;50.024;19.220;2023-01-15T08:14:48;98018.59;;;7.69;100.00
35291;BME280;21411;50.024;19.220;2023-01-15T08:17:36;98016.34;;;7.69;100.00
35291;BME280;21411;50.024;19.220;2023-01-15T08:20:05;98014.70;;;7.69;100.00
35291;BME280;21411;50.024;19.220;2023-01-15T08:22:32;98009.55;;;7.70;100.00
35291;BME280;21411;50.024;19.220;2023-01-15T08:24:59;98013.71;;;7.71;100.00
35291;BME280;21411;50.024;19.220;2023-01-15T08:27:26;98011.11;;;7.73;100.00
35291;BME280;21411;50.024;19.220;2023-01-15T08:29:54;98014.97;;;7.73;100.00
35291;BME280;21411;50.024;19.220;2023-01-15T08:32:22;98010.05;;;7.73;100.00
35291;BME280;21411;50.024;19.220;2023-01-15T08:34:49;98009.52;;;7.73;100.00
35291;BME280;21411;50.024;19.220;2023-01-15T08:37:16;98011.77;;;7.74;100.00
35291;BME280;21411;50.024;19.220;2023-01-15T08:39:43;98013.08;;;7.75;100.00
35291;BME280;21411;50.024;19.220;2023-01-15T08:42:09;98012.53;;;7.75;100.00
35291;BME280;21411;50.024;19.220;2023-01-15T08:44:36;98011.85;;;7.75;100.00
35291;BME280;21411;50.024;19.220;2023-01-15T08:47:03;98005.96;;;7.76;100.00
35291;BME280;21411;50.024;19.220;2023-01-15T08:49:29;98002.92;;;7.76;100.00
35291;BME280;21411;50.024;19.220;2023-01-15T08:51:56;98001.79;;;7.77;100.00
35291;BME280;21411;50.024;19.220;2023-01-15T08:54:24;98004.49;;;7.79;100.00
35291;BME280;21411;50.024;19.220;2023-01-15T08:56:51;98006.09;;;7.81;100.00
35291;BME280;21411;50.024;19.220;2023-01-15T08:59:18;98002.95;;;7.83;100.00
35291;BME280;21411;50.024;19.220;2023-01-15T09:01:45;98007.67;;;7.86;100.00
35291;BME280;21411;50.024;19.220;2023-01-15T09:04:16;98017.23;;;7.89;100.00
35291;BME280;21411;50.024;19.220;2023-01-15T09:06:43;98015.67;;;7.91;100.00
35291;BME280;21411;50.024;19.220;2023-01-15T09:09:11;98014.42;;;7.94;100.00
35291;BME280;21411;50.024;19.220;2023-01-15T09:11:38;98010.23;;;7.98;100.00
35291;BME280;21411;50.024;19.220;2023-01-15T09:14:10;98006.36;;;8.02;100.00
35291;BME280;21411;50.024;19.220;2023-01-15T09:16:37;98007.80;;;8.07;100.00
35291;BME280;21411;50.024;19.220;2023-01-15T09:19:05;98002.04;;;8.10;100.00
35291;BME280;21411;50.024;19.220;2023-01-15T09:21:33;97996.52;;;8.16;100.00
35291;BME280;21411;50.024;19.220;2023-01-15T09:24:00;97998.16;;;8.22;100.00
35291;BME280;21411;50.024;19.220;2023-01-15T09:26:28;98000.45;;;8.30;100.00
35291;BME280;21411;50.024;19.220;2023-01-15T09:28:57;97998.98;;;8.38;100.00
35291;BME280;21411;50.024;19.220;2023-01-15T09:31:25;98000.01;;;8.46;100.00
35291;BME280;21411;50.024;19.220;2023-01-15T09:33:53;97984.45;;;8.52;100.00
35291;BME280;21411;50.024;19.220;2023-01-15T09:36:26;97979.53;;;8.59;100.00
35291;BME280;21411;50.024;19.220;2023-01-15T09:38:54;97973.27;;;8.65;100.00
35291;BME280;21411;50.024;19.220;2023-01-15T09:41:24;97973.13;;;8.71;100.00
35291;BME280;21411;50.024;19.220;2023-01-15T09:47:08;97963.55;;;8.83;100.00
35291;BME280;21411;50.024;19.220;2023-01-15T09:55:26;97969.70;;;8.98;100.00
35291;BME280;21411;50.024;19.220;2023-01-15T09:57:54;97969.29;;;9.05;100.00
35291;BME280;21411;50.024;19.220;2023-01-15T10:00:25;97965.20;;;9.10;100.00
35291;BME280;21411;50.024;19.220;2023-01-15T10:03:04;97967.63;;;9.16;100.00
35291;BME280;21411;50.024;19.220;2023-01-15T10:05:37;97959.77;;;9.21;100.00
35291;BME280;21411;50.024;19.220;2023-01-15T10:08:15;97951.25;;;9.26;100.00
35291;BME280;21411;50.024;19.220;2023-01-15T10:10:48;97944.35;;;9.32;100.00
35291;BME280;21411;50.024;19.220;2023-01-15T10:13:30;97936.30;;;9.40;100.00
35291;BME280;21411;50.024;19.220;2023-01-15T10:16:01;97929.67;;;9.45;100.00
35291;BME280;21411;50.024;19.220;2023-01-15T10:18:28;97919.40;;;9.47;100.00
35291;BME280;21411;50.024;19.220;2023-01-15T10:31:22;97911.07;;;9.30;100.00
35291;BME280;21411;50.024;19.220;2023-01-15T10:36:49;97906.23;;;9.15;100.00
35291;BME280;21411;50.024;19.220;2023-01-15T10:39:35;97913.77;;;9.04;100.00
35291;BME280;21411;50.024;19.220;2023-01-15T10:45:00;97904.14;;;8.82;100.00
35291;BME280;21411;50.024;19.220;2023-01-15T10:47:33;97894.68;;;8.73;100.00
35291;BME280;21411;50.024;19.220;2023-01-15T10:50:14;97887.92;;;8.67;100.00
35291;BME280;21411;50.024;19.220;2023-01-15T10:52:43;97890.73;;;8.63;100.00
35291;BME280;21411;50.024;19.220;2023-01-15T10:58:08;97884.92;;;8.60;100.00
35291;BME280;21411;50.024;19.220;2023-01-15T11:00:37;97882.05;;;8.61;100.00
35291;BME280;21411;50.024;19.220;2023-01-15T11:03:11;97875.83;;;8.61;100.00
35291;BME280;21411;50.024;19.220;2023-01-15T11:05:42;97876.67;;;8.62;100.00
35291;BME280;21411;50.024;19.220;2023-01-15T11:08:24;97882.88;;;8.62;100.00
35291;BME280;21411;50.024;19.220;2023-01-15T11:10:57;97879.04;;;8.61;100.00
35291;BME280;21411;50.024;19.220;2023-01-15T11:13:30;97872.90;;;8.60;100.00
35291;BME280;21411;50.024;19.220;2023-01-15T11:16:25;97867.52;;;8.59;100.00
35291;BME280;21411;50.024;19.220;2023-01-15T11:19:05;97863.45;;;8.56;100.00
35291;BME280;21411;50.024;19.220;2023-01-15T11:21:52;97854.46;;;8.55;100.00
35291;BME280;21411;50.024;19.220;2023-01-15T11:24:19;97848.20;;;8.54;100.00
35291;BME280;21411;50.024;19.220;2023-01-15T11:26:50;97845.80;;;8.53;100.00
35291;BME280;21411;50.024;19.220;2023-01-15T11:29:34;97843.67;;;8.53;100.00
35291;BME280;21411;50.024;19.220;2023-01-15T11:32:17;97839.30;;;8.55;100.00
35291;BME280;21411;50.024;19.220;2023-01-15T11:37:29;97828.56;;;8.63;100.00
35291;BME280;21411;50.024;19.220;2023-01-15T11:39:58;97826.06;;;8.68;100.00
35291;BME280;21411;50.024;19.220;2023-01-15T11:42:35;97814.21;;;8.72;100.00
35291;BME280;21411;50.024;19.220;2023-01-15T11:45:23;97809.60;;;8.77;100.00
35291;BME280;21411;50.024;19.220;2023-01-15T11:48:18;97808.59;;;8.81;100.00
35291;BME280;21411;50.024;19.220;2023-01-15T11:51:10;97807.50;;;8.86;100.00
35291;BME280;21411;50.024;19.220;2023-01-15T11:53:41;97800.34;;;8.89;100.00
35291;BME280;21411;50.024;19.220;2023-01-15T11:56:16;97793.86;;;8.93;100.00
35291;BME280;21411;50.024;19.220;2023-01-15T11:58:55;97794.89;;;8.95;100.00
35291;BME280;21411;50.024;19.220;2023-01-15T12:01:31;97790.52;;;8.96;100.00
35291;BME280;21411;50.024;19.220;2023-01-15T12:04:17;97788.41;;;8.98;100.00
35291;BME280;21411;50.024;19.220;2023-01-15T12:06:48;97782.06;;;9.00;100.00
35291;BME280;21411;50.024;19.220;2023-01-15T12:26:18;97762.23;;;9.16;100.00
35291;BME280;21411;50.024;19.220;2023-01-15T12:28:56;97755.25;;;9.17;100.00
35291;BME280;21411;50.024;19.220;2023-01-15T12:31:32;97754.22;;;9.16;100.00
35291;BME280;21411;50.024;19.220;2023-01-15T12:34:15;97750.84;;;9.18;100.00
35291;BME280;21411;50.024;19.220;2023-01-15T12:36:53;97748.67;;;9.23;100.00
35291;BME280;21411;50.024;19.220;2023-01-15T12:39:31;97741.67;;;9.27;100.00
35291;BME280;21411;50.024;19.220;2023-01-15T12:42:03;97740.08;;;9.29;100.00
35291;BME280;21411;50.024;19.220;2023-01-15T12:44:54;97739.74;;;9.29;100.00
35291;BME280;21411;50.024;19.220;2023-01-15T12:50:38;97730.65;;;9.20;100.00
35291;BME280;21411;50.024;19.220;2023-01-15T13:06:44;97737.14;;;8.99;100.00
35291;BME280;21411;50.024;19.220;2023-01-15T13:09:21;97732.54;;;9.02;100.00
35291;BME280;21411;50.024;19.220;2023-01-15T13:11:51;97730.99;;;9.03;100.00
35291;BME280;21411;50.024;19.220;2023-01-15T13:14:19;97728.89;;;9.03;100.00
35291;BME280;21411;50.024;19.220;2023-01-15T13:16:54;97731.76;;;9.03;100.00
35291;BME280;21411;50.024;19.220;2023-01-15T13:19:58;97730.86;;;9.03;100.00
35291;BME280;21411;50.024;19.220;2023-01-15T13:22:31;97729.94;;;8.99;100.00
35291;BME280;21411;50.024;19.220;2023-01-15T13:37:18;97746.77;;;8.90;100.00
35291;BME280;21411;50.024;19.220;2023-01-15T13:39:48;97755.14;;;8.87;100.00
35291;BME280;21411;50.024;19.220;2023-01-15T13:42:22;97751.11;;;8.85;100.00
35291;BME280;21411;50.024;19.220;2023-01-15T13:48:17;97741.24;;;8.77;100.00
35291;BME280;21411;50.024;19.220;2023-01-15T13:50:53;97734.03;;;8.72;100.00
35291;BME280;21411;50.024;19.220;2023-01-15T13:53:33;97724.69;;;8.67;100.00
35291;BME280;21411;50.024;19.220;2023-01-15T13:56:07;97724.11;;;8.63;100.00
35291;BME280;21411;50.024;19.220;2023-01-15T13:58:52;97726.23;;;8.61;100.00
35291;BME280;21411;50.024;19.220;2023-01-15T14:01:21;97726.10;;;8.58;100.00
35291;BME280;21411;50.024;19.220;2023-01-15T14:04:14;97725.58;;;8.56;100.00
35291;BME280;21411;50.024;19.220;2023-01-15T14:14:27;97724.84;;;8.47;100.00
35291;BME280;21411;50.024;19.220;2023-01-15T14:31:18;97719.39;;;8.26;100.00
35291;BME280;21411;50.024;19.220;2023-01-15T14:39:29;97712.77;;;8.13;100.00
35291;BME280;21411;50.024;19.220;2023-01-15T14:42:03;97706.34;;;8.09;100.00
35291;BME280;21411;50.024;19.220;2023-01-15T14:45:26;97701.38;;;8.05;100.00
35291;BME280;21411;50.024;19.220;2023-01-15T14:47:59;97699.96;;;8.00;100.00
35291;BME280;21411;50.024;19.220;2023-01-15T14:50:38;97703.63;;;7.97;100.00
35291;BME280;21411;50.024;19.220;2023-01-15T15:04:32;97715.51;;;7.84;100.00
35291;BME280;21411;50.024;19.220;2023-01-15T15:07:11;97712.88;;;7.84;100.00
35291;BME280;21411;50.024;19.220;2023-01-15T15:09:44;97712.67;;;7.84;100.00
35291;BME280;21411;50.024;19.220;2023-01-15T15:14:48;97700.84;;;7.87;100.00
35291;BME280;21411;50.024;19.220;2023-01-15T15:17:32;97698.93;;;7.88;100.00
35291;BME280;21411;50.024;19.220;2023-01-15T15:23:26;97706.41;;;7.88;100.00
35291;BME280;21411;50.024;19.220;2023-01-15T15:25:57;97707.39;;;7.86;100.00
35291;BME280;21411;50.024;19.220;2023-01-15T15:28:24;97703.76;;;7.85;100.00
35291;BME280;21411;50.024;19.220;2023-01-15T15:30:52;97703.39;;;7.86;100.00
35291;BME280;21411;50.024;19.220;2023-01-15T15:33:36;97702.23;;;7.85;100.00
35291;BME280;21411;50.024;19.220;2023-01-15T15:36:03;97698.73;;;7.84;100.00
35291;BME280;21411;50.024;19.220;2023-01-15T15:38:30;97697.08;;;7.85;100.00
35291;BME280;21411;50.024;19.220;2023-01-15T15:41:01;97699.46;;;7.86;100.00
35291;BME280;21411;50.024;19.220;2023-01-15T15:43:50;97698.71;;;7.86;100.00
35291;BME280;21411;50.024;19.220;2023-01-15T15:46:36;97693.72;;;7.85;100.00
35291;BME280;21411;50.024;19.220;2023-01-15T15:49:21;97698.98;;;7.83;100.00
35291;BME280;21411;50.024;19.220;2023-01-15T15:51:50;97697.05;;;7.83;100.00
35291;BME280;21411;50.024;19.220;2023-01-15T15:56:47;97703.20;;;7.84;100.00
35291;BME280;21411;50.024;19.220;2023-01-15T15:59:22;97707.85;;;7.83;100.00
35291;BME280;21411;50.024;19.220;2023-01-15T16:01:52;97710.95;;;7.82;100.00
35291;BME280;21411;50.024;19.220;2023-01-15T16:04:19;97709.04;;;7.79;100.00